sensor_id;sensor_type;location;lat;lon;timestamp;pressure;altitude;pressure_sealevel;temperature;humidity
63500;BME280;49654;51.142;14.924;2023-03-14T00:00:10;97385.16;;;10.62;89.73
63500;BME280;49654;51.142;14.924;2023-03-14T00:02:37;97369.22;;;10.59;89.80
63500;BME280;49654;51.142;14.924;2023-03-14T00:05:05;97356.91;;;10.54;90.17
63500;BME280;49654;51.142;14.924;2023-03-14T00:07:33;97351.59;;;10.61;89.90
63500;BME280;49654;51.142;14.924;2023-03-14T00:10:03;97350.16;;;10.65;89.60
63500;BME280;49654;51.142;14.924;2023-03-14T00:12:31;97350.75;;;10.67;89.59
63500;BME280;49654;51.142;14.924;2023-03-14T00:14:58;97348.66;;;10.57;89.98
63500;BME280;49654;51.142;14.924;2023-03-14T00:17:29;97349.97;;;10.66;90.28
63500;BME280;49654;51.142;14.924;2023-03-14T00:19:56;97336.13;;;10.54;90.20
63500;BME280;49654;51.142;14.924;2023-03-14T00:22:23;97357.53;;;10.68;90.02
63500;BME280;49654;51.142;14.924;2023-03-14T00:24:50;97355.84;;;10.73;89.91
63500;BME280;49654;51.142;14.924;2023-03-14T00:27:18;97352.16;;;10.81;89.57
63500;BME280;49654;51.142;14.924;2023-03-14T00:29:45;97352.06;;;10.88;89.17
63500;BME280;49654;51.142;14.924;2023-03-14T00:32:12;97314.41;;;10.67;89.03
63500;BME280;49654;51.142;14.924;2023-03-14T00:34:39;97322.16;;;10.85;89.25
63500;BME280;49654;51.142;14.924;2023-03-14T00:37:06;97294.44;;;10.67;90.19
63500;BME280;49654;51.142;14.924;2023-03-14T00:39:33;97275.44;;;10.55;91.73
63500;BME280;49654;51.142;14.924;2023-03-14T00:42:00;97262.53;;;10.48;92.46
63500;BME280;49654;51.142;14.924;2023-03-14T00:44:28;97247.19;;;10.47;93.26
63500;BME280;49654;51.142;14.924;2023-03-14T00:46:55;97233.91;;;10.55;93.32
63500;BME280;49654;51.142;14.924;2023-03-14T00:49:22;97193.59;;;10.41;94.24
63500;BME280;49654;51.142;14.924;2023-03-14T00:51:49;97159.88;;;10.41;95.05
63500;BME280;49654;51.142;14.924;2023-03-14T00:54:17;97120.91;;;10.29;95.46
63500;BME280;49654;51.142;14.924;2023-03-14T00:56:44;97024.59;;;9.84;95.93
63500;BME280;49654;51.142;14.924;2023-03-14T00:59:11;97113.38;;;10.39;95.88
63500;BME280;49654;51.142;14.924;2023-03-14T01:01:39;97106.06;;;10.48;95.48
63500;BME280;49654;51.142;14.924;2023-03-14T01:04:07;97114.94;;;10.40;95.69
63500;BME280;49654;51.142;14.924;2023-03-14T01:06:34;97145.16;;;10.35;95.56
63500;BME280;49654;51.142;14.924;2023-03-14T01:09:01;97147.34;;;10.38;95.16
63500;BME280;49654;51.142;14.924;2023-03-14T01:11:31;97122.72;;;10.28;95.02
63500;BME280;49654;51.142;14.924;2023-03-14T01:13:58;97139.97;;;10.35;94.73
63500;BME280;49654;51.142;14.924;2023-03-14T01:16:28;97141.56;;;10.36;94.97
63500;BME280;49654;51.142;14.924;2023-03-14T01:18:56;97149.81;;;10.44;94.15
63500;BME280;49654;51.142;14.924;2023-03-14T01:21:25;97143.28;;;10.42;93.98
63500;BME280;49654;51.142;14.924;2023-03-14T01:23:54;97131.88;;;10.43;94.12
63500;BME280;49654;51.142;14.924;2023-03-14T01:26:23;97116.41;;;10.36;94.13
63500;BME280;49654;51.142;14.924;2023-03-14T01:28:53;97133.81;;;10.47;93.86
63500;BME280;49654;51.142;14.924;2023-03-14T01:31:20;97137.00;;;10.49;93.74
63500;BME280;49654;51.142;14.924;2023-03-14T01:33:47;97124.81;;;10.50;93.37
63500;BME280;49654;51.142;14.924;2023-03-14T01:36:15;97120.03;;;10.47;93.58
63500;BME280;49654;51.142;14.924;2023-03-14T01:38:42;97107.16;;;10.40;93.18
63500;BME280;49654;51.142;14.924;2023-03-14T01:41:14;97118.34;;;10.41;92.60
63500;BME280;49654;51.142;14.924;2023-03-14T01:43:41;97077.97;;;10.03;92.77
63500;BME280;49654;51.142;14.924;2023-03-14T01:49:12;97131.53;;;10.39;91.86
63500;BME280;49654;51.142;14.924;2023-03-14T01:51:45;97066.16;;;10.19;91.00
63500;BME280;49654;51.142;14.924;2023-03-14T01:54:17;97122.19;;;10.50;91.22
63500;BME280;49654;51.142;14.924;2023-03-14T01:56:49;97132.78;;;10.37;91.45
63500;BME280;49654;51.142;14.924;2023-03-14T01:59:16;97142.25;;;10.43;91.39
63500;BME280;49654;51.142;14.924;2023-03-14T02:01:46;97155.00;;;10.44;91.13
63500;BME280;49654;51.142;14.924;2023-03-14T02:04:14;97169.78;;;10.44;90.60
63500;BME280;49654;51.142;14.924;2023-03-14T02:06:49;97167.97;;;10.33;91.02
63500;BME280;49654;51.142;14.924;2023-03-14T02:09:16;97157.44;;;10.27;91.72
63500;BME280;49654;51.142;14.924;2023-03-14T02:11:44;97149.03;;;10.32;91.43
63500;BME280;49654;51.142;14.924;2023-03-14T02:14:19;97127.31;;;10.26;90.86
63500;BME280;49654;51.142;14.924;2023-03-14T02:16:48;97139.59;;;10.19;91.28
63500;BME280;49654;51.142;14.924;2023-03-14T02:19:17;97145.88;;;10.23;91.22
63500;BME280;49654;51.142;14.924;2023-03-14T02:21:54;97118.69;;;10.33;90.71
63500;BME280;49654;51.142;14.924;2023-03-14T02:24:27;97104.09;;;10.32;90.10
63500;BME280;49654;51.142;14.924;2023-03-14T02:27:06;97118.00;;;10.37;90.25
63500;BME280;49654;51.142;14.924;2023-03-14T02:29:35;97109.13;;;10.45;89.62
63500;BME280;49654;51.142;14.924;2023-03-14T02:32:05;97101.53;;;10.43;89.26
63500;BME280;49654;51.142;14.924;2023-03-14T02:34:32;97105.50;;;10.46;88.71
63500;BME280;49654;51.142;14.924;2023-03-14T02:37:00;97107.16;;;10.40;88.94
63500;BME280;49654;51.142;14.924;2023-03-14T02:39:33;97102.66;;;10.47;88.56
63500;BME280;49654;51.142;14.924;2023-03-14T02:42:01;97099.19;;;10.42;88.19
63500;BME280;49654;51.142;14.924;2023-03-14T02:44:30;97089.34;;;10.44;87.91
63500;BME280;49654;51.142;14.924;2023-03-14T02:46:57;97098.25;;;10.36;87.67
63500;BME280;49654;51.142;14.924;2023-03-14T02:49:25;97100.94;;;10.30;87.60
63500;BME280;49654;51.142;14.924;2023-03-14T02:51:53;97091.00;;;10.26;87.43
63500;BME280;49654;51.142;14.924;2023-03-14T02:54:20;97101.25;;;10.21;87.39
63500;BME280;49654;51.142;14.924;2023-03-14T02:56:47;97093.47;;;10.21;86.92
63500;BME280;49654;51.142;14.924;2023-03-14T02:59:14;97089.97;;;10.16;86.67
63500;BME280;49654;51.142;14.924;2023-03-14T03:01:43;97084.44;;;10.12;87.01
63500;BME280;49654;51.142;14.924;2023-03-14T03:04:09;97059.72;;;9.98;86.80
63500;BME280;49654;51.142;14.924;2023-03-14T03:06:36;97078.53;;;10.05;86.57
63500;BME280;49654;51.142;14.924;2023-03-14T03:09:03;97078.41;;;10.00;87.59
63500;BME280;49654;51.142;14.924;2023-03-14T03:11:30;97079.06;;;9.95;87.51
63500;BME280;49654;51.142;14.924;2023-03-14T03:13:58;97077.59;;;9.88;87.43
63500;BME280;49654;51.142;14.924;2023-03-14T03:16:25;97066.44;;;9.87;87.81
63500;BME280;49654;51.142;14.924;2023-03-14T03:18:53;96996.66;;;9.44;87.78
63500;BME280;49654;51.142;14.924;2023-03-14T03:21:20;97064.56;;;9.76;88.00
63500;BME280;49654;51.142;14.924;2023-03-14T03:23:49;97057.38;;;9.78;88.22
63500;BME280;49654;51.142;14.924;2023-03-14T03:26:16;97070.00;;;9.74;88.10
63500;BME280;49654;51.142;14.924;2023-03-14T03:28:43;97074.03;;;9.70;88.41
63500;BME280;49654;51.142;14.924;2023-03-14T03:31:10;97068.94;;;9.64;88.31
63500;BME280;49654;51.142;14.924;2023-03-14T03:33:38;97058.06;;;9.73;87.68
63500;BME280;49654;51.142;14.924;2023-03-14T03:36:08;97048.00;;;9.65;87.50
63500;BME280;49654;51.142;14.924;2023-03-14T03:38:35;97059.50;;;9.69;87.47
63500;BME280;49654;51.142;14.924;2023-03-14T03:41:03;97058.19;;;9.78;86.71
63500;BME280;49654;51.142;14.924;2023-03-14T03:43:30;97057.75;;;9.82;86.15
63500;BME280;49654;51.142;14.924;2023-03-14T03:45:57;97050.16;;;9.80;85.97
63500;BME280;49654;51.142;14.924;2023-03-14T03:48:24;97047.38;;;9.82;85.24
63500;BME280;49654;51.142;14.924;2023-03-14T03:50:51;96950.34;;;9.36;84.74
63500;BME280;49654;51.142;14.924;2023-03-14T03:53:19;97039.06;;;9.91;84.44
63500;BME280;49654;51.142;14.924;2023-03-14T03:55:46;97062.16;;;9.93;83.83
63500;BME280;49654;51.142;14.924;2023-03-14T03:58:13;97048.41;;;9.92;83.79
63500;BME280;49654;51.142;14.924;2023-03-14T04:00:40;97038.81;;;9.93;83.10
63500;BME280;49654;51.142;14.924;2023-03-14T04:03:07;97056.31;;;9.97;83.17
63500;BME280;49654;51.142;14.924;2023-03-14T04:05:34;97065.09;;;9.96;82.80
63500;BME280;49654;51.142;14.924;2023-03-14T04:08:02;97069.25;;;9.97;82.76
63500;BME280;49654;51.142;14.924;2023-03-14T04:10:33;97066.91;;;9.96;82.66
63500;BME280;49654;51.142;14.924;2023-03-14T04:13:00;97067.13;;;9.94;82.55
63500;BME280;49654;51.142;14.924;2023-03-14T04:15:27;97056.97;;;9.93;82.44
63500;BME280;49654;51.142;14.924;2023-03-14T04:17:56;97070.94;;;9.92;82.62
63500;BME280;49654;51.142;14.924;2023-03-14T04:20:23;97065.88;;;9.85;82.39
63500;BME280;49654;51.142;14.924;2023-03-14T04:22:50;97061.31;;;9.81;82.49
63500;BME280;49654;51.142;14.924;2023-03-14T04:25:17;97054.66;;;9.73;82.08
63500;BME280;49654;51.142;14.924;2023-03-14T04:27:47;97055.47;;;9.73;81.80
63500;BME280;49654;51.142;14.924;2023-03-14T04:30:14;96999.97;;;9.51;80.94
63500;BME280;49654;51.142;14.924;2023-03-14T04:32:41;97035.50;;;9.74;80.69
63500;BME280;49654;51.142;14.924;2023-03-14T04:35:08;97016.78;;;9.72;80.77
63500;BME280;49654;51.142;14.924;2023-03-14T04:37:35;96994.66;;;9.58;80.71
63500;BME280;49654;51.142;14.924;2023-03-14T04:40:02;97025.94;;;9.74;80.41
63500;BME280;49654;51.142;14.924;2023-03-14T04:42:31;97034.28;;;9.76;80.09
63500;BME280;49654;51.142;14.924;2023-03-14T04:45:00;97036.72;;;9.71;80.37
63500;BME280;49654;51.142;14.924;2023-03-14T04:47:27;97032.22;;;9.67;80.22
63500;BME280;49654;51.142;14.924;2023-03-14T04:49:54;97029.25;;;9.63;80.53
63500;BME280;49654;51.142;14.924;2023-03-14T04:52:21;97024.66;;;9.65;80.37
63500;BME280;49654;51.142;14.924;2023-03-14T04:54:48;97019.44;;;9.53;80.69
63500;BME280;49654;51.142;14.924;2023-03-14T04:57:15;97023.94;;;9.46;81.08
63500;BME280;49654;51.142;14.924;2023-03-14T04:59:42;97034.84;;;9.48;81.14
63500;BME280;49654;51.142;14.924;2023-03-14T05:02:10;97034.28;;;9.46;81.24
63500;BME280;49654;51.142;14.924;2023-03-14T05:04:37;96989.38;;;9.22;81.30
63500;BME280;49654;51.142;14.924;2023-03-14T05:07:04;97025.72;;;9.46;81.31
63500;BME280;49654;51.142;14.924;2023-03-14T05:09:31;97025.50;;;9.47;81.11
63500;BME280;49654;51.142;14.924;2023-03-14T05:11:57;97028.53;;;9.44;81.15
63500;BME280;49654;51.142;14.924;2023-03-14T05:14:24;97033.16;;;9.42;81.15
63500;BME280;49654;51.142;14.924;2023-03-14T05:16:51;97020.28;;;9.36;81.39
63500;BME280;49654;51.142;14.924;2023-03-14T05:19:20;97045.44;;;9.47;81.34
63500;BME280;49654;51.142;14.924;2023-03-14T05:21:46;97044.84;;;9.45;81.59
63500;BME280;49654;51.142;14.924;2023-03-14T05:24:13;97053.88;;;9.42;81.42
63500;BME280;49654;51.142;14.924;2023-03-14T05:26:40;97057.81;;;9.45;81.37
63500;BME280;49654;51.142;14.924;2023-03-14T05:29:07;97007.22;;;9.12;81.40
63500;BME280;49654;51.142;14.924;2023-03-14T05:31:34;97067.03;;;9.41;81.80
63500;BME280;49654;51.142;14.924;2023-03-14T05:34:01;97075.94;;;9.45;81.71
63500;BME280;49654;51.142;14.924;2023-03-14T05:36:29;97072.63;;;9.56;81.48
63500;BME280;49654;51.142;14.924;2023-03-14T05:38:56;97080.75;;;9.60;81.38
63500;BME280;49654;51.142;14.924;2023-03-14T05:41:23;97072.16;;;9.59;80.99
63500;BME280;49654;51.142;14.924;2023-03-14T05:43:50;97062.69;;;9.53;81.46
63500;BME280;49654;51.142;14.924;2023-03-14T05:46:17;97046.72;;;9.56;81.46
63500;BME280;49654;51.142;14.924;2023-03-14T05:48:44;97045.00;;;9.50;81.63
63500;BME280;49654;51.142;14.924;2023-03-14T05:51:11;97023.13;;;9.46;81.69
63500;BME280;49654;51.142;14.924;2023-03-14T05:53:40;97036.78;;;9.53;81.44
63500;BME280;49654;51.142;14.924;2023-03-14T05:56:07;97028.41;;;9.39;81.89
63500;BME280;49654;51.142;14.924;2023-03-14T05:58:35;97046.50;;;9.58;81.42
63500;BME280;49654;51.142;14.924;2023-03-14T06:01:03;97036.47;;;9.61;81.12
63500;BME280;49654;51.142;14.924;2023-03-14T06:03:31;97016.31;;;9.63;80.83
63500;BME280;49654;51.142;14.924;2023-03-14T06:05:58;97004.16;;;9.64;80.56
63500;BME280;49654;51.142;14.924;2023-03-14T06:08:25;97008.94;;;9.78;80.45
63500;BME280;49654;51.142;14.924;2023-03-14T06:10:54;97010.97;;;9.88;79.83
63500;BME280;49654;51.142;14.924;2023-03-14T06:13:21;97005.66;;;9.83;79.85
63500;BME280;49654;51.142;14.924;2023-03-14T06:15:47;97008.84;;;9.85;79.42
63500;BME280;49654;51.142;14.924;2023-03-14T06:18:14;97032.59;;;9.82;79.57
63500;BME280;49654;51.142;14.924;2023-03-14T06:20:41;97036.97;;;9.70;80.01
63500;BME280;49654;51.142;14.924;2023-03-14T06:23:08;97040.56;;;9.69;80.22
63500;BME280;49654;51.142;14.924;2023-03-14T06:25:35;97049.56;;;9.66;80.32
63500;BME280;49654;51.142;14.924;2023-03-14T06:28:04;97045.78;;;9.81;80.37
63500;BME280;49654;51.142;14.924;2023-03-14T06:30:31;97051.66;;;9.88;79.84
63500;BME280;49654;51.142;14.924;2023-03-14T06:32:58;97065.09;;;9.96;79.42
63500;BME280;49654;51.142;14.924;2023-03-14T06:35:25;97027.78;;;9.86;79.22
63500;BME280;49654;51.142;14.924;2023-03-14T06:37:52;97070.66;;;10.12;79.42
63500;BME280;49654;51.142;14.924;2023-03-14T06:40:19;97081.94;;;10.17;78.75
63500;BME280;49654;51.142;14.924;2023-03-14T06:42:46;97075.69;;;10.25;78.68
63500;BME280;49654;51.142;14.924;2023-03-14T06:45:14;97064.88;;;10.40;78.48
63500;BME280;49654;51.142;14.924;2023-03-14T06:47:41;97072.44;;;10.41;78.05
63500;BME280;49654;51.142;14.924;2023-03-14T06:50:10;97078.19;;;10.55;77.46
63500;BME280;49654;51.142;14.924;2023-03-14T06:52:37;97076.41;;;10.56;77.58
63500;BME280;49654;51.142;14.924;2023-03-14T06:55:07;97082.03;;;10.64;77.44
63500;BME280;49654;51.142;14.924;2023-03-14T06:57:34;97081.03;;;10.65;76.96
63500;BME280;49654;51.142;14.924;2023-03-14T07:00:01;97068.63;;;10.67;76.97
63500;BME280;49654;51.142;14.924;2023-03-14T07:02:30;97068.72;;;10.72;76.42
63500;BME280;49654;51.142;14.924;2023-03-14T07:04:57;97064.66;;;10.76;76.41
63500;BME280;49654;51.142;14.924;2023-03-14T07:07:24;97072.91;;;10.85;76.38
63500;BME280;49654;51.142;14.924;2023-03-14T07:09:51;96996.19;;;10.54;75.90
63500;BME280;49654;51.142;14.924;2023-03-14T07:12:18;97085.63;;;11.10;75.03
63500;BME280;49654;51.142;14.924;2023-03-14T07:14:45;97088.44;;;11.09;75.59
63500;BME280;49654;51.142;14.924;2023-03-14T07:17:12;97083.13;;;11.15;74.81
63500;BME280;49654;51.142;14.924;2023-03-14T07:19:40;97096.66;;;11.17;75.48
63500;BME280;49654;51.142;14.924;2023-03-14T07:22:07;97109.78;;;11.22;75.23
63500;BME280;49654;51.142;14.924;2023-03-14T07:24:34;97112.94;;;11.24;75.32
63500;BME280;49654;51.142;14.924;2023-03-14T07:27:01;97110.22;;;11.31;75.20
63500;BME280;49654;51.142;14.924;2023-03-14T07:29:28;97106.09;;;11.47;74.85
63500;BME280;49654;51.142;14.924;2023-03-14T07:31:55;97013.38;;;11.07;74.45
63500;BME280;49654;51.142;14.924;2023-03-14T07:34:21;97112.22;;;11.81;74.12
63500;BME280;49654;51.142;14.924;2023-03-14T07:36:50;97105.59;;;11.73;74.04
63500;BME280;49654;51.142;14.924;2023-03-14T07:39:17;97117.38;;;12.05;73.63
63500;BME280;49654;51.142;14.924;2023-03-14T07:41:43;97118.84;;;12.00;73.23
63500;BME280;49654;51.142;14.924;2023-03-14T07:44:11;97105.66;;;11.90;73.69
63500;BME280;49654;51.142;14.924;2023-03-14T07:46:38;97111.69;;;12.08;73.54
63500;BME280;49654;51.142;14.924;2023-03-14T07:49:05;97084.34;;;12.22;72.72
63500;BME280;49654;51.142;14.924;2023-03-14T07:51:31;97089.31;;;12.23;72.62
63500;BME280;49654;51.142;14.924;2023-03-14T07:54:00;97100.69;;;12.68;71.41
63500;BME280;49654;51.142;14.924;2023-03-14T07:56:27;97102.03;;;12.70;70.99
63500;BME280;49654;51.142;14.924;2023-03-14T07:58:54;97104.88;;;12.69;70.83
63500;BME280;49654;51.142;14.924;2023-03-14T08:01:20;97092.25;;;12.77;70.88
63500;BME280;49654;51.142;14.924;2023-03-14T08:03:47;97093.84;;;13.00;70.42
63500;BME280;49654;51.142;14.924;2023-03-14T08:06:14;97097.28;;;13.23;69.80
63500;BME280;49654;51.142;14.924;2023-03-14T08:08:41;97094.34;;;13.36;69.08
63500;BME280;49654;51.142;14.924;2023-03-14T08:11:09;97100.56;;;13.35;68.74
63500;BME280;49654;51.142;14.924;2023-03-14T08:13:37;97105.69;;;13.08;68.80
63500;BME280;49654;51.142;14.924;2023-03-14T08:16:05;97098.22;;;12.95;69.22
63500;BME280;49654;51.142;14.924;2023-03-14T08:18:32;97102.34;;;12.57;70.22
63500;BME280;49654;51.142;14.924;2023-03-14T08:20:59;97097.78;;;12.47;71.78
63500;BME280;49654;51.142;14.924;2023-03-14T08:23:26;97103.53;;;12.49;72.01
63500;BME280;49654;51.142;14.924;2023-03-14T08:25:53;97101.25;;;12.53;71.81
63500;BME280;49654;51.142;14.924;2023-03-14T08:28:21;97093.66;;;12.85;69.97
63500;BME280;49654;51.142;14.924;2023-03-14T08:30:48;97092.00;;;12.62;70.30
63500;BME280;49654;51.142;14.924;2023-03-14T08:33:15;97091.44;;;12.77;70.48
63500;BME280;49654;51.142;14.924;2023-03-14T08:35:42;97085.53;;;12.82;70.16
63500;BME280;49654;51.142;14.924;2023-03-14T08:38:09;97060.22;;;12.60;70.00
63500;BME280;49654;51.142;14.924;2023-03-14T08:40:36;97085.06;;;12.68;69.35
63500;BME280;49654;51.142;14.924;2023-03-14T08:43:03;97076.06;;;12.59;70.27
63500;BME280;49654;51.142;14.924;2023-03-14T08:45:31;97089.41;;;12.62;71.07
63500;BME280;49654;51.142;14.924;2023-03-14T08:47:58;97085.50;;;12.98;69.47
63500;BME280;49654;51.142;14.924;2023-03-14T08:50:25;97080.72;;;12.73;69.80
63500;BME280;49654;51.142;14.924;2023-03-14T08:52:52;97075.97;;;12.87;70.93
63500;BME280;49654;51.142;14.924;2023-03-14T08:55:19;97071.84;;;12.91;70.97
63500;BME280;49654;51.142;14.924;2023-03-14T08:57:46;97072.09;;;12.90;70.73
63500;BME280;49654;51.142;14.924;2023-03-14T09:00:13;97073.03;;;12.84;70.95
63500;BME280;49654;51.142;14.924;2023-03-14T09:02:42;97087.25;;;12.76;70.64
63500;BME280;49654;51.142;14.924;2023-03-14T09:05:09;97081.66;;;12.67;71.37
63500;BME280;49654;51.142;14.924;2023-03-14T09:07:37;97092.56;;;12.64;71.07
63500;BME280;49654;51.142;14.924;2023-03-14T09:10:05;97098.69;;;12.75;71.04
63500;BME280;49654;51.142;14.924;2023-03-14T09:12:32;97094.38;;;12.81;70.82
63500;BME280;49654;51.142;14.924;2023-03-14T09:15:00;97099.31;;;13.38;69.33
63500;BME280;49654;51.142;14.924;2023-03-14T09:17:27;97089.66;;;13.60;67.45
63500;BME280;49654;51.142;14.924;2023-03-14T09:19:55;97106.22;;;13.49;67.50
63500;BME280;49654;51.142;14.924;2023-03-14T09:22:22;97112.47;;;13.97;66.60
63500;BME280;49654;51.142;14.924;2023-03-14T09:24:49;97121.88;;;14.25;65.89
63500;BME280;49654;51.142;14.924;2023-03-14T09:27:15;97103.25;;;13.62;66.43
63500;BME280;49654;51.142;14.924;2023-03-14T09:29:42;97107.06;;;13.76;67.08
63500;BME280;49654;51.142;14.924;2023-03-14T09:32:09;97093.97;;;13.98;65.79
63500;BME280;49654;51.142;14.924;2023-03-14T09:34:36;97098.16;;;14.26;64.57
63500;BME280;49654;51.142;14.924;2023-03-14T09:37:04;97103.91;;;14.01;65.56
63500;BME280;49654;51.142;14.924;2023-03-14T09:39:31;97087.75;;;13.77;65.11
63500;BME280;49654;51.142;14.924;2023-03-14T09:42:01;97056.31;;;13.62;66.35
63500;BME280;49654;51.142;14.924;2023-03-14T09:44:30;97092.38;;;14.24;65.78
63500;BME280;49654;51.142;14.924;2023-03-14T09:47:01;97107.31;;;14.02;65.70
63500;BME280;49654;51.142;14.924;2023-03-14T09:49:31;97050.59;;;13.65;65.18
63500;BME280;49654;51.142;14.924;2023-03-14T09:52:01;97109.94;;;14.34;64.32
63500;BME280;49654;51.142;14.924;2023-03-14T09:54:35;97117.56;;;14.41;64.59
63500;BME280;49654;51.142;14.924;2023-03-14T09:57:04;97078.28;;;14.25;63.28
63500;BME280;49654;51.142;14.924;2023-03-14T09:59:33;97109.06;;;14.50;63.62
63500;BME280;49654;51.142;14.924;2023-03-14T10:02:13;97124.19;;;14.48;63.80
63500;BME280;49654;51.142;14.924;2023-03-14T10:04:41;97118.47;;;14.24;64.95
63500;BME280;49654;51.142;14.924;2023-03-14T10:07:13;97102.66;;;14.36;64.37
63500;BME280;49654;51.142;14.924;2023-03-14T10:09:45;97114.41;;;14.39;64.18
63500;BME280;49654;51.142;14.924;2023-03-14T10:12:13;97120.63;;;14.60;63.79
63500;BME280;49654;51.142;14.924;2023-03-14T10:14:46;97118.53;;;14.57;62.85
63500;BME280;49654;51.142;14.924;2023-03-14T10:17:14;97115.19;;;14.66;63.31
63500;BME280;49654;51.142;14.924;2023-03-14T10:19:54;97113.53;;;14.55;62.15
63500;BME280;49654;51.142;14.924;2023-03-14T10:22:23;97114.06;;;14.52;63.17
63500;BME280;49654;51.142;14.924;2023-03-14T10:24:54;97104.38;;;14.52;63.00
63500;BME280;49654;51.142;14.924;2023-03-14T10:27:28;97102.28;;;14.22;62.44
63500;BME280;49654;51.142;14.924;2023-03-14T10:29:57;97100.03;;;14.68;61.98
63500;BME280;49654;51.142;14.924;2023-03-14T10:32:28;97112.84;;;14.65;61.29
63500;BME280;49654;51.142;14.924;2023-03-14T10:35:18;97103.09;;;14.55;61.12
63500;BME280;49654;51.142;14.924;2023-03-14T10:37:51;97103.19;;;14.38;62.18
63500;BME280;49654;51.142;14.924;2023-03-14T10:40:24;97083.25;;;14.27;63.05
63500;BME280;49654;51.142;14.924;2023-03-14T10:42:52;97106.31;;;14.67;61.31
63500;BME280;49654;51.142;14.924;2023-03-14T10:45:28;97115.34;;;14.55;61.54
63500;BME280;49654;51.142;14.924;2023-03-14T10:47:58;97107.22;;;14.51;61.52
63500;BME280;49654;51.142;14.924;2023-03-14T10:50:27;97118.91;;;14.75;61.88
63500;BME280;49654;51.142;14.924;2023-03-14T10:52:55;97113.09;;;14.68;62.53
63500;BME280;49654;51.142;14.924;2023-03-14T10:55:24;97090.47;;;14.47;60.81
63500;BME280;49654;51.142;14.924;2023-03-14T10:57:52;97080.38;;;14.23;62.14
63500;BME280;49654;51.142;14.924;2023-03-14T11:00:21;97110.25;;;14.43;61.39
63500;BME280;49654;51.142;14.924;2023-03-14T11:03:07;97103.31;;;14.48;61.98
63500;BME280;49654;51.142;14.924;2023-03-14T11:05:41;97105.47;;;14.29;61.95
63500;BME280;49654;51.142;14.924;2023-03-14T11:08:15;97089.31;;;14.33;62.13
63500;BME280;49654;51.142;14.924;2023-03-14T11:10:48;97110.44;;;14.58;62.08
63500;BME280;49654;51.142;14.924;2023-03-14T11:13:23;97104.63;;;14.51;61.81
63500;BME280;49654;51.142;14.924;2023-03-14T11:15:58;97110.91;;;14.55;61.41
63500;BME280;49654;51.142;14.924;2023-03-14T11:18:43;97103.41;;;14.32;62.13
63500;BME280;49654;51.142;14.924;2023-03-14T11:21:19;97111.78;;;14.07;62.54
63500;BME280;49654;51.142;14.924;2023-03-14T11:23:55;97105.56;;;13.86;62.89
63500;BME280;49654;51.142;14.924;2023-03-14T11:26:32;97100.22;;;13.97;63.21
63500;BME280;49654;51.142;14.924;2023-03-14T11:29:12;97105.31;;;14.09;62.10
63500;BME280;49654;51.142;14.924;2023-03-14T11:31:44;97080.97;;;13.76;62.27
63500;BME280;49654;51.142;14.924;2023-03-14T11:34:15;97098.75;;;13.80;63.21
63500;BME280;49654;51.142;14.924;2023-03-14T11:36:46;97107.28;;;13.53;63.44
63500;BME280;49654;51.142;14.924;2023-03-14T11:39:19;97098.41;;;13.71;63.51
63500;BME280;49654;51.142;14.924;2023-03-14T11:41:49;97095.34;;;13.79;63.36
63500;BME280;49654;51.142;14.924;2023-03-14T11:44:19;97099.19;;;13.71;62.93
63500;BME280;49654;51.142;14.924;2023-03-14T11:46:50;97090.09;;;13.52;63.10
63500;BME280;49654;51.142;14.924;2023-03-14T11:49:26;97049.59;;;13.22;63.06
63500;BME280;49654;51.142;14.924;2023-03-14T11:51:59;97100.72;;;13.94;62.33
63500;BME280;49654;51.142;14.924;2023-03-14T11:54:33;97096.38;;;14.05;61.48
63500;BME280;49654;51.142;14.924;2023-03-14T11:57:04;97104.94;;;13.73;61.89
63500;BME280;49654;51.142;14.924;2023-03-14T11:59:36;97097.00;;;13.90;61.94
63500;BME280;49654;51.142;14.924;2023-03-14T12:02:16;97094.78;;;14.04;61.36
63500;BME280;49654;51.142;14.924;2023-03-14T12:04:51;97089.69;;;14.14;60.87
63500;BME280;49654;51.142;14.924;2023-03-14T12:07:23;97093.13;;;14.20;60.65
63500;BME280;49654;51.142;14.924;2023-03-14T12:09:56;97090.91;;;14.39;60.45
63500;BME280;49654;51.142;14.924;2023-03-14T12:12:25;97080.44;;;14.34;59.37
63500;BME280;49654;51.142;14.924;2023-03-14T12:14:55;97080.53;;;14.44;59.73
63500;BME280;49654;51.142;14.924;2023-03-14T12:17:25;97081.94;;;14.24;58.83
63500;BME280;49654;51.142;14.924;2023-03-14T12:20:05;97078.22;;;13.88;60.82
63500;BME280;49654;51.142;14.924;2023-03-14T12:22:35;97069.56;;;14.10;59.99
63500;BME280;49654;51.142;14.924;2023-03-14T12:25:06;97066.81;;;14.26;60.10
63500;BME280;49654;51.142;14.924;2023-03-14T12:27:46;97065.16;;;14.47;59.02
63500;BME280;49654;51.142;14.924;2023-03-14T12:30:24;97056.38;;;14.59;59.65
63500;BME280;49654;51.142;14.924;2023-03-14T12:35:58;97058.88;;;14.16;59.05
63500;BME280;49654;51.142;14.924;2023-03-14T12:38:31;97051.44;;;13.71;60.12
63500;BME280;49654;51.142;14.924;2023-03-14T12:41:13;97055.63;;;13.72;60.98
63500;BME280;49654;51.142;14.924;2023-03-14T12:43:42;97053.59;;;13.52;61.77
63500;BME280;49654;51.142;14.924;2023-03-14T12:46:19;97037.06;;;13.68;62.45
63500;BME280;49654;51.142;14.924;2023-03-14T12:48:47;97050.00;;;13.58;61.42
63500;BME280;49654;51.142;14.924;2023-03-14T12:51:17;97041.50;;;13.68;61.32
63500;BME280;49654;51.142;14.924;2023-03-14T12:53:55;97001.66;;;13.45;60.74
63500;BME280;49654;51.142;14.924;2023-03-14T12:56:28;96986.78;;;13.73;59.86
63500;BME280;49654;51.142;14.924;2023-03-14T12:59:17;97033.53;;;14.12;58.96
63500;BME280;49654;51.142;14.924;2023-03-14T13:01:54;97025.53;;;14.56;58.90
63500;BME280;49654;51.142;14.924;2023-03-14T13:04:28;97033.28;;;14.83;57.46
63500;BME280;49654;51.142;14.924;2023-03-14T13:06:58;97000.06;;;14.78;57.22